createdAt,value
2022-08-29T00:01:56.908Z,37.09
2022-08-29T00:04:26.404Z,37.52
2022-08-29T00:06:57.198Z,37.26
2022-08-29T00:09:26.678Z,36.96
2022-08-29T00:11:56.136Z,37.11
2022-08-29T00:14:26.111Z,37.36
2022-08-29T00:16:58.179Z,37.47
2022-08-29T00:19:27.688Z,37.44
2022-08-29T00:21:57.146Z,37.89
2022-08-29T00:24:26.683Z,37.87
2022-08-29T00:26:56.119Z,37.99
2022-08-29T00:29:25.595Z,37.78
2022-08-29T00:31:55.121Z,37.64
2022-08-29T00:34:27.182Z,38.11
2022-08-29T00:36:56.693Z,38.18
2022-08-29T00:39:27.376Z,38.10
2022-08-29T00:41:56.839Z,38.19
2022-08-29T00:44:26.289Z,38.15
2022-08-29T00:46:57.088Z,38.67
2022-08-29T00:49:35.252Z,38.42
2022-08-29T00:52:08.895Z,38.28
2022-08-29T00:54:38.957Z,38.71
2022-08-29T00:57:08.450Z,38.44
2022-08-29T00:59:39.351Z,38.66
2022-08-29T01:02:11.082Z,38.62
2022-08-29T01:04:43.249Z,38.90
2022-08-29T01:07:12.908Z,38.58
2022-08-29T01:09:43.577Z,38.68
2022-08-29T01:12:16.274Z,38.57
2022-08-29T01:14:48.606Z,38.85
2022-08-29T01:17:20.980Z,38.65
2022-08-29T01:19:56.057Z,39.17
2022-08-29T01:22:34.980Z,38.97
2022-08-29T01:25:08.777Z,39.42
2022-08-29T01:27:39.824Z,39.54
2022-08-29T01:30:10.922Z,39.54
2022-08-29T01:32:40.401Z,39.50
2022-08-29T01:35:11.300Z,39.29
2022-08-29T01:37:41.509Z,39.32
2022-08-29T01:40:14.673Z,39.24
2022-08-29T01:42:44.428Z,39.34
2022-08-29T01:45:14.187Z,39.32
2022-08-29T01:47:43.655Z,39.82
2022-08-29T01:50:17.900Z,39.96
2022-08-29T01:52:48.079Z,40.09
2022-08-29T01:55:20.141Z,39.80
2022-08-29T01:57:49.798Z,39.65
2022-08-29T02:00:20.990Z,39.84
2022-08-29T02:02:50.453Z,40.02
2022-08-29T02:05:23.414Z,39.77
2022-08-29T02:07:52.901Z,39.87
2022-08-29T02:10:24.994Z,40.77
2022-08-29T02:12:55.073Z,41.22
2022-08-29T02:15:24.710Z,41.79
2022-08-29T02:17:54.150Z,41.98
2022-08-29T02:20:23.600Z,42.31
2022-08-29T02:22:53.086Z,42.39
2022-08-29T02:25:37.698Z,41.88
2022-08-29T02:28:07.179Z,41.77
2022-08-29T02:30:36.763Z,42.15
2022-08-29T02:33:06.423Z,41.91
2022-08-29T02:35:38.870Z,41.60
2022-08-29T02:38:12.321Z,42.02
2022-08-29T02:40:44.561Z,41.49
2022-08-29T02:43:15.493Z,41.97
2022-08-29T02:45:45.201Z,42.27
2022-08-29T02:48:15.161Z,42.63
2022-08-29T02:50:45.334Z,42.47
2022-08-29T02:53:16.912Z,43.04
2022-08-29T02:55:48.930Z,42.78
2022-08-29T02:58:18.442Z,42.45
2022-08-29T03:00:47.920Z,42.67
2022-08-29T03:03:17.421Z,42.34
2022-08-29T03:05:47.870Z,42.21
2022-08-29T03:08:18.917Z,43.54
2022-08-29T03:10:50.759Z,42.73
2022-08-29T03:13:20.298Z,42.38
2022-08-29T03:15:49.973Z,42.38
2022-08-29T03:18:19.920Z,42.74
2022-08-29T03:20:51.663Z,43.10
2022-08-29T03:23:21.262Z,42.61
2022-08-29T03:25:53.472Z,43.45
2022-08-29T03:28:23.104Z,43.51
2022-08-29T03:30:52.644Z,43.78
2022-08-29T03:33:22.140Z,44.10
2022-08-29T03:35:51.601Z,43.79
2022-08-29T03:38:22.774Z,43.74
2022-08-29T03:40:58.224Z,42.99
2022-08-29T03:43:27.878Z,43.00
2022-08-29T03:45:57.345Z,42.45
2022-08-29T03:48:26.791Z,42.61
2022-08-29T03:50:56.640Z,42.07
2022-08-29T03:53:26.632Z,42.03
2022-08-29T03:55:59.189Z,41.75
2022-08-29T03:58:28.628Z,41.77
2022-08-29T04:00:58.941Z,41.29
2022-08-29T04:03:31.205Z,41.57
2022-08-29T04:06:01.344Z,41.60
2022-08-29T04:08:30.782Z,41.59
2022-08-29T04:11:04.093Z,41.10
2022-08-29T04:13:33.567Z,41.49
2022-08-29T04:16:03.026Z,41.60
2022-08-29T04:18:32.491Z,41.73
2022-08-29T04:21:03.978Z,41.87
2022-08-29T04:23:33.458Z,41.97
2022-08-29T04:26:27.171Z,42.07
2022-08-29T04:28:54.931Z,42.24
2022-08-29T04:31:24.439Z,42.19
2022-08-29T04:33:54.007Z,42.01
2022-08-29T04:36:23.449Z,42.21
2022-08-29T04:38:52.902Z,42.45
2022-08-29T04:41:24.914Z,42.54
2022-08-29T04:43:54.373Z,42.52
2022-08-29T04:46:24.759Z,42.49
2022-08-29T04:48:54.630Z,42.45
2022-08-29T04:51:24.194Z,42.53
2022-08-29T04:53:53.853Z,42.10
2022-08-29T04:56:25.941Z,41.82
2022-08-29T04:58:55.374Z,42.34
2022-08-29T05:01:27.129Z,42.33
2022-08-29T05:03:58.058Z,42.05
2022-08-29T05:06:29.263Z,42.28
2022-08-29T05:08:59.874Z,41.70
2022-08-29T05:11:33.546Z,41.62
2022-08-29T05:14:03.114Z,41.43
2022-08-29T05:16:37.117Z,41.40
2022-08-29T05:19:08.357Z,41.85
2022-08-29T05:21:40.026Z,41.72
2022-08-29T05:24:10.845Z,41.29
2022-08-29T05:26:44.174Z,41.88
2022-08-29T05:29:14.141Z,41.62
2022-08-29T05:31:44.521Z,41.58
2022-08-29T05:34:33.904Z,41.52
2022-08-29T05:37:04.786Z,41.85
2022-08-29T05:39:34.242Z,41.71
2022-08-29T05:42:07.232Z,41.20
2022-08-29T05:44:36.933Z,41.42
2022-08-29T05:47:06.568Z,41.45
2022-08-29T05:49:37.463Z,41.48
2022-08-29T05:52:07.818Z,40.80
2022-08-29T05:54:38.341Z,40.38
2022-08-29T05:57:13.189Z,40.30
2022-08-29T05:59:44.964Z,39.87
2022-08-29T06:02:14.612Z,38.92
2022-08-29T06:04:44.142Z,38.83
2022-08-29T06:07:13.699Z,39.08
2022-08-29T06:09:44.065Z,38.81
2022-08-29T06:12:16.746Z,38.33
2022-08-29T06:14:50.498Z,38.53
2022-08-29T06:17:20.322Z,37.76
2022-08-29T06:19:52.443Z,36.82
2022-08-29T06:22:22.532Z,37.03
2022-08-29T06:24:55.070Z,36.28
2022-08-29T06:27:29.838Z,36.44
2022-08-29T06:30:01.906Z,36.19
2022-08-29T06:32:31.732Z,35.86
2022-08-29T06:35:01.345Z,35.31
2022-08-29T06:37:30.783Z,34.21
2022-08-29T06:40:00.314Z,34.62
2022-08-29T06:42:32.410Z,34.51
2022-08-29T06:45:01.874Z,34.08
2022-08-29T06:47:31.499Z,33.98
2022-08-29T06:50:00.963Z,34.00
2022-08-29T06:52:30.603Z,33.85
2022-08-29T06:55:00.117Z,33.67
2022-08-29T06:57:33.399Z,32.56
2022-08-29T07:00:03.246Z,32.92
2022-08-29T07:02:52.367Z,31.86
2022-08-29T07:05:22.684Z,32.49
2022-08-29T07:07:52.248Z,32.21
2022-08-29T07:10:22.965Z,31.48
2022-08-29T07:12:55.254Z,31.65
2022-08-29T07:15:25.305Z,32.09
2022-08-29T07:17:59.751Z,32.13
2022-08-29T07:20:29.472Z,32.68
2022-08-29T07:22:59.356Z,33.11
2022-08-29T07:25:28.833Z,34.73
2022-08-29T07:28:00.862Z,33.95
2022-08-29T07:30:30.599Z,33.56
2022-08-29T07:33:00.046Z,34.22
2022-08-29T07:35:30.667Z,34.35
2022-08-29T07:38:01.224Z,34.08
2022-08-29T07:40:31.003Z,34.59
2022-08-29T07:43:03.306Z,34.79
2022-08-29T07:45:32.835Z,33.92
2022-08-29T07:48:02.321Z,33.60
2022-08-29T07:50:37.280Z,33.53
2022-08-29T07:53:06.735Z,34.86
2022-08-29T07:55:36.441Z,35.30
2022-08-29T07:58:08.451Z,35.16
2022-08-29T08:00:37.894Z,34.79
2022-08-29T08:03:08.725Z,34.86
2022-08-29T08:05:38.243Z,34.46
2022-08-29T08:08:15.074Z,33.38
2022-08-29T08:10:48.938Z,33.93
2022-08-29T08:13:23.450Z,35.18
2022-08-29T08:15:52.911Z,35.07
2022-08-29T08:18:22.370Z,35.09
2022-08-29T08:20:51.829Z,33.72
2022-08-29T08:23:21.787Z,32.81
2022-08-29T08:25:51.270Z,33.20
2022-08-29T08:28:23.327Z,32.52
2022-08-29T08:30:52.821Z,31.61
2022-08-29T08:33:22.294Z,30.33
2022-08-29T08:35:51.750Z,29.41
2022-08-29T08:38:21.772Z,28.80
2022-08-29T08:40:57.103Z,28.52
2022-08-29T08:43:33.683Z,27.71
2022-08-29T08:46:03.206Z,28.19
2022-08-29T08:48:36.112Z,27.89
2022-08-29T08:51:06.507Z,27.36
2022-08-29T08:53:37.354Z,28.93
2022-08-29T08:56:08.377Z,29.34
2022-08-29T08:58:42.838Z,28.34
2022-08-29T09:01:15.933Z,28.28
2022-08-29T09:04:04.126Z,28.81
2022-08-29T09:06:41.370Z,29.15
2022-08-29T09:09:15.730Z,28.10
2022-08-29T09:11:51.416Z,27.96
2022-08-29T09:14:33.696Z,28.54
2022-08-29T09:17:03.152Z,29.53
2022-08-29T09:19:32.601Z,30.06
2022-08-29T09:22:02.823Z,28.86
2022-08-29T09:24:45.420Z,28.59
2022-08-29T09:27:20.599Z,28.46
2022-08-29T09:29:56.981Z,28.97
2022-08-29T09:32:26.440Z,28.27
2022-08-29T09:35:08.613Z,28.65
2022-08-29T09:37:39.411Z,28.73
2022-08-29T09:40:11.734Z,28.18
2022-08-29T09:42:42.742Z,28.36
2022-08-29T09:45:21.998Z,28.86
2022-08-29T09:47:51.488Z,27.91
2022-08-29T09:50:25.135Z,28.85
2022-08-29T09:52:55.513Z,29.00
2022-08-29T09:55:31.802Z,29.49
2022-08-29T09:58:03.689Z,29.22
2022-08-29T10:00:36.950Z,28.34
2022-08-29T10:03:07.353Z,28.31
2022-08-29T10:05:41.510Z,28.29
2022-08-29T10:08:27.226Z,28.32
2022-08-29T10:10:58.582Z,27.86
2022-08-29T10:13:31.505Z,26.66
2022-08-29T10:16:12.846Z,26.86
2022-08-29T10:18:46.439Z,26.61
2022-08-29T10:21:24.434Z,27.61
2022-08-29T10:24:03.543Z,27.64
2022-08-29T10:26:37.857Z,27.18
2022-08-29T10:29:12.491Z,27.79
2022-08-29T10:31:46.558Z,28.91
2022-08-29T10:34:30.599Z,28.61
2022-08-29T10:37:02.141Z,28.75
2022-08-29T10:39:36.909Z,27.41
2022-08-29T10:42:09.764Z,26.49
2022-08-29T10:44:46.237Z,27.07
2022-08-29T10:47:25.365Z,26.99
2022-08-29T10:50:34.077Z,26.87
2022-08-29T10:53:09.929Z,27.13
2022-08-29T10:55:50.932Z,27.23
2022-08-29T10:58:26.760Z,26.97
2022-08-29T11:00:58.394Z,27.01
2022-08-29T11:03:36.095Z,26.85
2022-08-29T11:06:08.761Z,27.77
2022-08-29T11:08:40.227Z,27.88
2022-08-29T11:11:10.001Z,27.34
2022-08-29T11:13:41.128Z,26.15
2022-08-29T11:16:14.003Z,25.26
2022-08-29T11:18:47.768Z,26.03
2022-08-29T11:21:22.268Z,27.54
2022-08-29T11:23:51.763Z,27.50
2022-08-29T11:26:32.460Z,27.01
2022-08-29T11:29:04.905Z,27.17
2022-08-29T11:31:41.829Z,27.13
2022-08-29T11:34:24.283Z,26.79
2022-08-29T11:37:02.484Z,26.56
2022-08-29T11:39:53.489Z,25.20
2022-08-29T11:42:53.541Z,25.70
2022-08-29T11:45:35.372Z,26.75
2022-08-29T11:48:20.632Z,26.95
2022-08-29T11:50:52.738Z,26.52
2022-08-29T11:53:33.953Z,25.91
2022-08-29T11:56:27.881Z,26.00
2022-08-29T11:58:57.974Z,25.57
2022-08-29T12:01:57.577Z,25.81
2022-08-29T12:04:55.496Z,26.16
2022-08-29T12:07:36.227Z,25.48
2022-08-29T12:10:06.525Z,25.81
2022-08-29T12:12:40.612Z,25.37
2022-08-29T12:15:48.969Z,25.06
2022-08-29T12:18:46.212Z,24.53
2022-08-29T12:21:37.338Z,25.64
2022-08-29T12:24:09.942Z,25.70
2022-08-29T12:26:44.953Z,26.10
2022-08-29T12:29:22.105Z,25.29
2022-08-29T12:32:22.150Z,25.63
2022-08-29T12:35:11.907Z,25.39
2022-08-29T12:37:53.864Z,25.77
2022-08-29T12:40:44.354Z,25.45
2022-08-29T12:43:23.694Z,26.74
2022-08-29T12:45:53.258Z,26.30
2022-08-29T12:48:27.537Z,26.54
2022-08-29T12:50:57.017Z,26.28
2022-08-29T12:53:27.838Z,25.21
2022-08-29T12:56:01.155Z,24.36
2022-08-29T12:58:39.354Z,24.14
2022-08-29T13:01:10.915Z,25.31
2022-08-29T13:03:40.416Z,25.35
2022-08-29T13:06:12.384Z,24.57
2022-08-29T13:08:42.087Z,25.87
2022-08-29T13:11:14.374Z,25.69
2022-08-29T13:13:43.862Z,25.65
2022-08-29T13:16:25.822Z,25.60
2022-08-29T13:19:09.952Z,26.12
2022-08-29T13:21:40.193Z,25.65
2022-08-29T13:24:13.653Z,26.12
2022-08-29T13:27:01.128Z,25.73
2022-08-29T13:29:37.186Z,25.52
2022-08-29T13:32:23.905Z,26.45
2022-08-29T13:35:08.123Z,26.16
2022-08-29T13:37:38.873Z,26.10
2022-08-29T13:40:33.334Z,25.85
2022-08-29T13:43:05.662Z,26.54
2022-08-29T13:45:35.136Z,25.75
2022-08-29T13:48:23.390Z,25.61
2022-08-29T13:50:52.849Z,26.17
2022-08-29T13:53:22.449Z,26.62
2022-08-29T13:55:51.918Z,26.29
2022-08-29T13:58:26.811Z,26.70
2022-08-29T14:00:56.391Z,26.27
2022-08-29T14:03:26.364Z,26.32
2022-08-29T14:05:56.599Z,26.31
2022-08-29T14:08:26.293Z,26.34
2022-08-29T14:10:55.754Z,25.56
2022-08-29T14:13:28.089Z,25.46
2022-08-29T14:15:57.615Z,25.97
2022-08-29T14:18:27.140Z,26.10
2022-08-29T14:21:00.315Z,24.47
2022-08-29T14:23:29.937Z,24.31
2022-08-29T14:25:59.418Z,24.61
2022-08-29T14:28:31.575Z,23.88
2022-08-29T14:31:01.157Z,24.51
2022-08-29T14:33:30.782Z,25.13
2022-08-29T14:36:00.468Z,25.20
2022-08-29T14:38:30.612Z,25.36
2022-08-29T14:41:00.076Z,24.46
2022-08-29T14:43:35.232Z,25.08
2022-08-29T14:46:07.313Z,24.83
2022-08-29T14:48:36.874Z,25.31
2022-08-29T14:51:06.482Z,25.87
2022-08-29T14:53:47.054Z,26.36
2022-08-29T14:56:44.723Z,26.46
2022-08-29T14:59:16.739Z,26.25
2022-08-29T15:01:51.271Z,25.94
2022-08-29T15:04:35.014Z,25.92
2022-08-29T15:07:06.105Z,25.44
2022-08-29T15:09:35.692Z,25.72
2022-08-29T15:12:05.776Z,25.93
2022-08-29T15:14:37.919Z,25.64
2022-08-29T15:17:08.018Z,25.48
2022-08-29T15:20:31.185Z,25.50
2022-08-29T15:22:27.700Z,25.38
2022-08-29T15:24:57.387Z,25.38
2022-08-29T15:27:27.843Z,26.13
2022-08-29T15:29:59.970Z,26.05
2022-08-29T15:32:29.602Z,26.02
2022-08-29T15:34:59.331Z,25.76
2022-08-29T15:37:29.081Z,25.98
2022-08-29T15:39:58.807Z,25.49
2022-08-29T15:42:30.431Z,24.63
2022-08-29T15:45:07.453Z,25.02
2022-08-29T15:47:37.678Z,24.58
2022-08-29T15:50:08.642Z,24.56
2022-08-29T15:52:38.304Z,24.52
2022-08-29T15:55:08.854Z,25.19
2022-08-29T15:57:42.385Z,26.59
2022-08-29T16:00:30.627Z,26.69
2022-08-29T16:03:02.853Z,27.04
2022-08-29T16:05:32.734Z,26.80
2022-08-29T16:08:02.302Z,26.48
2022-08-29T16:10:31.800Z,26.28
2022-08-29T16:13:01.475Z,26.92
2022-08-29T16:15:35.015Z,26.80
2022-08-29T16:18:04.936Z,27.28
2022-08-29T16:20:34.662Z,27.34
2022-08-29T16:23:04.332Z,27.10
2022-08-29T16:25:34.002Z,27.48
2022-08-29T16:28:06.027Z,26.77
2022-08-29T16:30:44.225Z,26.97
2022-08-29T16:33:15.417Z,26.82
2022-08-29T16:35:44.856Z,27.21
2022-08-29T16:38:14.549Z,26.77
2022-08-29T16:40:44.260Z,26.48
2022-08-29T16:43:13.820Z,26.34
2022-08-29T16:45:45.942Z,26.43
2022-08-29T16:48:17.866Z,26.25
2022-08-29T16:50:47.762Z,26.24
2022-08-29T16:53:17.236Z,25.86
2022-08-29T16:55:46.808Z,25.71
2022-08-29T16:58:28.785Z,26.29
2022-08-29T17:01:01.012Z,26.55
2022-08-29T17:03:30.668Z,25.85
2022-08-29T17:06:00.169Z,26.03
2022-08-29T17:08:26.912Z,26.32
2022-08-29T17:10:53.611Z,26.08
2022-08-29T17:13:20.348Z,26.20
2022-08-29T17:15:47.072Z,26.60
2022-08-29T17:18:19.233Z,26.58
2022-08-29T17:20:48.936Z,26.54
2022-08-29T17:23:18.896Z,26.72
2022-08-29T17:25:48.397Z,26.55
2022-08-29T17:28:18.903Z,26.90
2022-08-29T17:30:49.075Z,26.88
2022-08-29T17:33:21.420Z,26.91
2022-08-29T17:35:51.299Z,26.97
2022-08-29T17:38:20.897Z,27.00
2022-08-29T17:40:50.973Z,27.17
2022-08-29T17:43:21.000Z,27.21
2022-08-29T17:45:50.563Z,27.27
2022-08-29T17:48:22.909Z,27.36
2022-08-29T17:50:52.928Z,27.42
2022-08-29T17:53:23.058Z,27.61
2022-08-29T17:55:52.526Z,27.48
2022-08-29T17:58:22.197Z,27.81
2022-08-29T18:00:52.437Z,27.78
2022-08-29T18:03:24.937Z,27.58
2022-08-29T18:05:54.414Z,27.94
2022-08-29T18:08:23.917Z,28.13
2022-08-29T18:10:53.402Z,28.32
2022-08-29T18:13:24.208Z,28.58
2022-08-29T18:15:54.706Z,28.77
2022-08-29T18:18:26.768Z,28.93
2022-08-29T18:20:56.240Z,28.66
2022-08-29T18:23:25.729Z,29.18
2022-08-29T18:25:55.226Z,29.04
2022-08-29T18:28:24.700Z,29.24
2022-08-29T18:30:54.528Z,29.52
2022-08-29T18:33:38.711Z,29.12
2022-08-29T18:36:14.422Z,29.34
2022-08-29T18:38:44.079Z,29.40
2022-08-29T18:41:13.569Z,29.50
2022-08-29T18:43:44.692Z,29.43
2022-08-29T18:46:14.221Z,29.60
2022-08-29T18:48:46.406Z,29.56
2022-08-29T18:51:13.323Z,30.19
2022-08-29T18:53:42.799Z,29.72
2022-08-29T18:56:12.288Z,29.66
2022-08-29T18:58:44.330Z,30.28
2022-08-29T19:01:14.365Z,29.78
2022-08-29T19:03:46.474Z,30.17
2022-08-29T19:06:17.573Z,30.29
2022-08-29T19:08:47.025Z,30.12
2022-08-29T19:11:16.658Z,29.84
2022-08-29T19:13:46.291Z,29.58
2022-08-29T19:16:15.798Z,29.93
2022-08-29T19:18:47.933Z,29.92
2022-08-29T19:21:14.821Z,29.63
2022-08-29T19:23:45.548Z,29.98
2022-08-29T19:26:17.275Z,29.89
2022-08-29T19:28:46.991Z,29.95
2022-08-29T19:31:18.088Z,30.13
2022-08-29T19:33:50.243Z,30.09
2022-08-29T19:36:20.122Z,29.93
2022-08-29T19:38:49.604Z,30.45
2022-08-29T19:41:19.234Z,29.95
2022-08-29T19:43:48.885Z,30.06
2022-08-29T19:46:20.055Z,30.28
2022-08-29T19:48:53.060Z,30.33
2022-08-29T19:51:25.271Z,30.29
2022-08-29T19:53:57.088Z,29.72
2022-08-29T19:56:28.519Z,29.72
2022-08-29T19:58:58.391Z,30.19
2022-08-29T20:01:28.309Z,29.91
2022-08-29T20:04:00.399Z,29.88
2022-08-29T20:06:29.837Z,30.23
2022-08-29T20:08:59.450Z,30.29
2022-08-29T20:11:29.345Z,30.72
2022-08-29T20:13:59.475Z,31.19
2022-08-29T20:16:30.167Z,31.54
2022-08-29T20:19:05.484Z,31.74
2022-08-29T20:21:35.942Z,31.31
2022-08-29T20:24:06.401Z,31.24
2022-08-29T20:26:37.505Z,31.22
2022-08-29T20:29:08.455Z,30.96
2022-08-29T20:31:40.637Z,31.28
2022-08-29T20:34:12.742Z,31.00
2022-08-29T20:36:55.118Z,31.58
2022-08-29T20:39:25.519Z,32.77
2022-08-29T20:41:56.382Z,33.39
2022-08-29T20:44:30.262Z,33.42
2022-08-29T20:47:02.674Z,33.62
2022-08-29T20:49:35.042Z,33.48
2022-08-29T20:52:05.116Z,33.32
2022-08-29T20:54:34.814Z,33.45
2022-08-29T20:57:04.330Z,33.21
2022-08-29T20:59:34.511Z,33.42
2022-08-29T21:02:04.905Z,33.32
2022-08-29T21:04:49.527Z,33.31
2022-08-29T21:07:20.649Z,33.47
2022-08-29T21:09:51.026Z,33.46
2022-08-29T21:12:21.062Z,33.58
2022-08-29T21:14:50.562Z,33.27
2022-08-29T21:17:20.749Z,33.46
2022-08-29T21:19:52.753Z,33.36
2022-08-29T21:22:25.016Z,33.32
2022-08-29T21:24:56.628Z,33.47
2022-08-29T21:27:26.129Z,33.01
2022-08-29T21:29:57.860Z,33.05
2022-08-29T21:32:27.442Z,33.47
2022-08-29T21:34:59.445Z,33.48
2022-08-29T21:37:28.890Z,33.48
2022-08-29T21:39:58.851Z,33.27
2022-08-29T21:42:28.382Z,33.46
2022-08-29T21:44:58.030Z,33.01
2022-08-29T21:47:27.470Z,33.27
2022-08-29T21:49:59.696Z,33.38
2022-08-29T21:52:29.146Z,33.32
2022-08-29T21:54:58.695Z,33.04
2022-08-29T21:57:40.639Z,33.58
2022-08-29T22:00:11.533Z,33.49
2022-08-29T22:02:41.981Z,33.13
2022-08-29T22:05:14.093Z,33.73
2022-08-29T22:07:43.537Z,33.99
2022-08-29T22:10:18.513Z,34.09
2022-08-29T22:12:48.045Z,34.42
2022-08-29T22:15:30.092Z,34.68
2022-08-29T22:17:59.549Z,34.40
2022-08-29T22:20:31.655Z,34.28
2022-08-29T22:23:01.099Z,34.43
2022-08-29T22:25:30.796Z,34.24
2022-08-29T22:28:00.277Z,34.31
2022-08-29T22:30:32.267Z,34.40
2022-08-29T22:33:02.057Z,34.57
2022-08-29T22:35:34.149Z,34.44
2022-08-29T22:38:03.578Z,34.37
2022-08-29T22:40:33.066Z,34.31
2022-08-29T22:43:02.543Z,34.67
2022-08-29T22:45:32.324Z,34.68
2022-08-29T22:48:01.797Z,34.45
2022-08-29T22:50:33.811Z,34.49
2022-08-29T22:53:03.802Z,34.96
2022-08-29T22:55:33.283Z,34.74
2022-08-29T22:58:04.564Z,34.53
2022-08-29T23:00:34.012Z,34.76
2022-08-29T23:03:03.761Z,34.83
2022-08-29T23:05:35.964Z,34.67
2022-08-29T23:08:05.912Z,34.65
2022-08-29T23:10:35.605Z,34.81
2022-08-29T23:13:05.053Z,35.27
2022-08-29T23:15:34.597Z,35.22
2022-08-29T23:18:05.156Z,35.36
2022-08-29T23:20:37.182Z,35.02
2022-08-29T23:23:08.547Z,35.14
2022-08-29T23:25:38.151Z,35.32
2022-08-29T23:28:07.619Z,35.22
2022-08-29T23:30:37.057Z,35.34
2022-08-29T23:33:06.887Z,36.08
2022-08-29T23:35:41.051Z,36.54
2022-08-29T23:38:10.542Z,36.11
2022-08-29T23:40:40.280Z,36.06
2022-08-29T23:43:09.810Z,36.67
2022-08-29T23:45:39.638Z,36.22
2022-08-29T23:48:09.664Z,36.47
2022-08-29T23:50:41.714Z,36.51
2022-08-29T23:53:15.002Z,36.66
2022-08-29T23:55:44.624Z,36.57
2022-08-29T23:58:14.083Z,37.26
